createdAt,value
2022-12-27T00:02:31.889Z,37.95
2022-12-27T00:07:45.116Z,36.70
2022-12-27T00:12:50.321Z,36.55
2022-12-27T00:18:03.664Z,32.38
2022-12-27T00:23:08.994Z,40.05
2022-12-27T00:28:14.727Z,34.28
2022-12-27T00:33:22.790Z,33.97
2022-12-27T01:55:20.995Z,14.57
2022-12-27T02:00:52.577Z,10.70
2022-12-27T02:06:07.315Z,11.77
2022-12-27T02:11:20.996Z,12.43
2022-12-27T02:16:27.525Z,11.57
2022-12-27T02:22:07.756Z,13.25
2022-12-27T02:27:28.640Z,19.27
2022-12-27T02:32:41.083Z,15.68
2022-12-27T02:37:51.230Z,12.63
2022-12-27T02:43:09.856Z,12.38
2022-12-27T02:48:30.896Z,14.10
2022-12-27T02:53:41.136Z,13.70
2022-12-27T02:58:59.691Z,14.50
2022-12-27T03:04:20.861Z,13.30
2022-12-27T03:10:05.034Z,11.38
2022-12-27T03:15:53.056Z,14.98
2022-12-27T03:21:20.949Z,13.18
2022-12-27T03:26:31.869Z,12.82
2022-12-27T03:31:56.519Z,13.32
2022-12-27T03:37:24.422Z,12.55
2022-12-27T03:42:43.999Z,12.65
2022-12-27T03:48:14.015Z,10.80
2022-12-27T03:53:32.257Z,9.55
2022-12-27T03:58:52.608Z,13.02
2022-12-27T04:03:58.289Z,8.30
2022-12-27T04:09:30.828Z,9.00
2022-12-27T04:14:48.471Z,8.13
2022-12-27T04:20:05.989Z,6.47
2022-12-27T04:25:28.486Z,4.85
2022-12-27T04:30:57.473Z,6.18
2022-12-27T04:36:07.134Z,7.50
2022-12-27T04:41:47.365Z,8.57
2022-12-27T04:47:09.857Z,6.38
2022-12-27T04:59:11.617Z,7.20
2022-12-27T05:16:10.585Z,7.57
2022-12-27T05:21:16.110Z,8.35
2022-12-27T05:26:22.900Z,7.10
2022-12-27T05:31:32.092Z,7.55
2022-12-27T05:36:46.758Z,7.22
2022-12-27T05:41:53.825Z,8.77
2022-12-27T05:47:03.307Z,7.90
2022-12-27T05:52:27.860Z,7.90
2022-12-27T05:58:01.639Z,7.25
2022-12-27T06:03:20.889Z,8.75
2022-12-27T06:08:29.811Z,6.85
2022-12-27T06:13:48.681Z,9.05
2022-12-27T06:20:12.504Z,12.70
2022-12-27T06:43:51.649Z,8.52
2022-12-27T07:05:27.444Z,14.43
2022-12-27T07:10:32.821Z,12.85
2022-12-27T07:15:43.722Z,13.98
2022-12-27T07:20:51.795Z,12.13
2022-12-27T07:25:57.240Z,12.25
2022-12-27T07:31:10.002Z,11.55
2022-12-27T07:36:35.231Z,16.50
2022-12-27T07:42:14.268Z,11.52
2022-12-27T07:47:57.722Z,10.93
2022-12-27T08:04:50.042Z,17.15
2022-12-27T08:09:59.982Z,13.38
2022-12-27T08:15:15.138Z,13.15
2022-12-27T08:21:04.044Z,14.57
2022-12-27T09:21:53.399Z,16.23
2022-12-27T09:32:35.154Z,13.38
2022-12-27T09:38:01.175Z,14.90
2022-12-27T09:43:22.255Z,15.43
2022-12-27T09:48:35.901Z,12.45
2022-12-27T09:53:49.471Z,10.68
2022-12-27T09:59:28.479Z,10.15
2022-12-27T10:10:15.991Z,7.28
2022-12-27T10:15:28.572Z,9.52
2022-12-27T10:20:48.913Z,9.52
2022-12-27T10:26:09.989Z,13.20
2022-12-27T10:31:56.176Z,12.25
2022-12-27T10:37:22.297Z,16.23
2022-12-27T10:43:20.427Z,12.40
2022-12-27T10:49:20.209Z,7.03
2022-12-27T10:54:07.879Z,7.78
2022-12-27T10:59:24.354Z,7.72
2022-12-27T11:04:33.980Z,8.60
2022-12-27T11:09:53.868Z,8.88
2022-12-27T11:15:05.210Z,6.60
2022-12-27T11:20:23.993Z,15.45
2022-12-27T11:25:33.701Z,14.05
2022-12-27T11:30:43.758Z,9.52
2022-12-27T11:35:51.751Z,5.07
2022-12-27T11:41:05.560Z,19.23
2022-12-27T11:46:29.060Z,2.97
2022-12-27T11:51:50.944Z,7.60
2022-12-27T11:57:02.906Z,5.93
2022-12-27T12:02:34.188Z,7.70
2022-12-27T12:07:53.061Z,7.13
2022-12-27T12:13:16.296Z,5.40
2022-12-27T12:18:45.955Z,6.90
2022-12-27T12:24:07.422Z,8.60
2022-12-27T12:29:40.356Z,9.80
2022-12-27T12:35:17.789Z,6.90
2022-12-27T12:40:36.961Z,5.45
2022-12-27T12:45:55.805Z,8.43
2022-12-27T12:51:34.694Z,6.85
2022-12-27T12:56:58.081Z,6.28
2022-12-27T13:02:24.126Z,14.35
2022-12-27T13:07:41.454Z,8.23
2022-12-27T13:12:53.692Z,11.13
2022-12-27T13:18:11.747Z,12.45
2022-12-27T13:23:28.226Z,13.13
2022-12-27T13:28:41.311Z,8.38
2022-12-27T13:33:52.677Z,19.25
2022-12-27T13:39:12.226Z,12.00
2022-12-27T13:44:37.473Z,10.52
2022-12-27T13:49:57.401Z,13.40
2022-12-27T13:55:38.542Z,13.02
2022-12-27T14:00:55.564Z,11.70
2022-12-27T14:06:20.990Z,11.40
2022-12-27T14:11:37.661Z,9.38
2022-12-27T14:16:59.391Z,10.18
2022-12-27T14:22:21.589Z,16.55
2022-12-27T14:28:10.609Z,17.80
2022-12-27T14:33:57.818Z,14.32
2022-12-27T14:39:38.954Z,8.23
2022-12-27T14:45:23.014Z,10.85
2022-12-27T14:50:52.851Z,48.75
2022-12-27T14:56:17.593Z,29.45
2022-12-27T15:01:34.846Z,27.92
2022-12-27T15:06:56.507Z,12.95
2022-12-27T15:12:11.440Z,9.85
2022-12-27T15:17:33.187Z,5.40
2022-12-27T15:22:49.547Z,5.93
2022-12-27T15:28:01.026Z,5.95
2022-12-27T15:33:20.024Z,7.75
2022-12-27T15:38:52.626Z,7.22
2022-12-27T15:44:25.952Z,6.40
2022-12-27T15:49:52.092Z,5.55
2022-12-27T15:55:11.228Z,8.60
2022-12-27T16:00:21.739Z,10.10
2022-12-27T16:05:54.869Z,9.68
2022-12-27T16:11:02.058Z,15.52
2022-12-27T16:16:09.804Z,9.35
2022-12-27T16:21:22.719Z,6.30
2022-12-27T16:26:30.698Z,6.60
2022-12-27T16:31:41.885Z,8.75
2022-12-27T16:42:08.579Z,6.70
2022-12-27T16:47:17.619Z,7.75
2022-12-27T16:52:48.684Z,5.60
2022-12-27T16:57:55.050Z,6.90
2022-12-27T17:03:39.234Z,6.30
2022-12-27T17:08:48.677Z,6.13
2022-12-27T17:13:58.280Z,8.05
2022-12-27T17:19:06.302Z,9.77
2022-12-27T17:24:17.909Z,5.20
2022-12-27T17:29:48.248Z,21.38
2022-12-27T17:34:59.499Z,16.25
2022-12-27T17:40:20.605Z,14.18
2022-12-27T17:45:36.129Z,12.70
2022-12-27T17:50:42.783Z,14.15
2022-12-27T17:56:16.199Z,16.52
2022-12-27T19:51:21.933Z,5.78
2022-12-27T19:56:53.195Z,7.68
2022-12-27T20:02:56.065Z,11.43
2022-12-27T20:20:53.722Z,8.95
2022-12-27T20:31:44.543Z,9.57
2022-12-27T20:37:35.318Z,7.97
2022-12-27T20:42:42.934Z,9.02
2022-12-27T20:47:55.346Z,9.02
2022-12-27T20:59:29.256Z,9.85
2022-12-27T21:10:21.829Z,17.50
2022-12-27T21:15:31.321Z,28.48
2022-12-27T21:20:44.193Z,18.33
2022-12-27T21:25:54.032Z,9.95
2022-12-27T21:31:19.525Z,9.82
2022-12-27T21:36:31.085Z,8.20
2022-12-27T21:41:41.355Z,5.93
2022-12-27T21:46:53.625Z,6.43
2022-12-27T21:52:55.487Z,8.32
2022-12-27T21:58:09.649Z,6.80
2022-12-27T22:03:19.731Z,9.32
2022-12-27T22:08:29.871Z,8.90
2022-12-27T22:14:24.914Z,6.30
2022-12-27T22:19:37.318Z,6.20
2022-12-27T22:24:56.497Z,8.48
2022-12-27T22:30:04.299Z,7.28
2022-12-27T22:35:17.839Z,7.03
2022-12-27T22:40:41.247Z,7.05
2022-12-27T22:46:10.530Z,5.45
2022-12-27T22:51:22.265Z,7.13
2022-12-27T22:56:43.744Z,7.57
2022-12-27T23:02:18.691Z,6.50
2022-12-27T23:08:05.295Z,8.63
2022-12-27T23:12:56.659Z,8.55
2022-12-27T23:18:03.553Z,5.65
2022-12-27T23:23:19.297Z,6.93
2022-12-27T23:28:30.140Z,6.97
2022-12-27T23:33:38.530Z,11.30
2022-12-27T23:39:35.183Z,7.97
2022-12-27T23:45:41.539Z,8.48
2022-12-27T23:51:29.723Z,10.80
